Explore Kentucky Lake

Lake Conditions
Facebook Twitter Instagram YouTube Contact Us About Us
Switch Mobile/Desktop

Previous Kentucky Lake Levels

Home | Lake Conditions | Previous Kentucky Lake Levels

Kentucky Lake Stages Over Last 48 Hours

The following table shows the previous 48 hours for Kentucky Lake.

Date/Time Lake River Discharge (cfs)
3/21/2019 11 PM CDT 355.63' 329.13' 154,534
3/21/2019 10 PM CDT 355.60' 329.18' 153,832
3/21/2019 9 PM CDT 355.55' 329.17' 152,588
3/21/2019 8 PM CDT 355.46' 329.24' 151,630
3/21/2019 7 PM CDT 355.44' 329.29' 151,500
3/21/2019 6 PM CDT 355.44' 329.49' 151,007
3/21/2019 5 PM CDT 355.39' 329.54' 150,483
3/21/2019 4 PM CDT 355.38' 329.62' 150,400
3/21/2019 3 PM CDT 355.38' 329.63' 150,223
3/21/2019 2 PM CDT 355.36' 329.77' 150,318
3/21/2019 1 PM CDT 355.39' 329.88' 151,023
3/21/2019 12 PM CDT 355.44' 329.90' 151,635
3/21/2019 11 AM CDT 355.46' 330.02' 152,257
3/21/2019 10 AM CDT 355.51' 330.09' 165,147
3/21/2019 9 AM CDT 355.49' 330.49' 183,443
3/21/2019 8 AM CDT 355.44' 330.78' 196,497
3/21/2019 7 AM CDT 355.40' 330.92' 196,227
3/21/2019 6 AM CDT 355.41' 330.95' 196,300
3/21/2019 5 AM CDT 355.41' 331.15' 196,412
3/21/2019 4 AM CDT 355.42' 331.11' 196,597
3/21/2019 3 AM CDT 355.43' 331.18' 196,780
3/21/2019 2 AM CDT 355.44' 331.25' 196,965
3/21/2019 1 AM CDT 355.45' 331.33' 197,152
3/21/2019 12 AM CDT 355.46' 331.28' 197,200
3/20/2019 11 PM CDT 355.46' 331.46' 197,340
3/20/2019 10 PM CDT 355.47' 331.46' 197,400
3/20/2019 9 PM CDT 355.47' 331.58' 197,400
3/20/2019 8 PM CDT 355.47' 331.55' 197,400
3/20/2019 7 PM CDT 355.47' 331.60' 197,712
3/20/2019 6 PM CDT 355.50' 331.71' 198,173
3/20/2019 5 PM CDT 355.52' 331.74' 198,452
3/20/2019 4 PM CDT 355.53' 331.84' 199,018
3/20/2019 3 PM CDT 355.58' 331.91' 199,568
3/20/2019 2 PM CDT 355.59' 331.96' 199,753
3/20/2019 1 PM CDT 355.60' 332.06' 199,800
3/20/2019 12 PM CDT 355.60' 332.14' 199,800
3/20/2019 11 AM CDT 355.60' 332.16' 199,752
3/20/2019 10 AM CDT 355.59' 332.24' 206,523
3/20/2019 9 AM CDT 355.54' 332.51' 228,117
3/20/2019 8 AM CDT 355.52' 332.90' 242,737
3/20/2019 7 AM CDT 355.49' 333.22' 242,830
3/20/2019 6 AM CDT 355.53' 333.10' 243,313
3/20/2019 5 AM CDT 355.54' 333.27' 243,695
3/20/2019 4 AM CDT 355.57' 333.23' 244,283
3/20/2019 3 AM CDT 355.60' 333.28' 244,967
3/20/2019 2 AM CDT 355.64' 333.32' 245,547
3/20/2019 1 AM CDT 355.66' 333.35' 246,137

Fallow Deer
Photo by Murray Blake

There are only a few small herds of fallow deer in Land Between The Lakes, but occasionally a lucky explorer will catch a glimpse of one.